Time;durP1;ratioP1;P1;durP2;ratioP2;P2;SDS_P1;SDS_P2;PMS_P1;PMS_P2;Temp;Humidity;BMP_temperature;BMP_pressure;BME280_temperature;BME280_humidity;BME280_pressure;Samples;Min_cycle;Max_cycle;Signal;HPM_P1;HPM_P2
2021/07/21 00:01:16;;;;;;;1.53;1.33;;;22.30;56.10;;;;;;5043457;28;20115;-85
2021/07/21 00:03:42;;;;;;;1.77;1.30;;;22.10;56.30;;;;;;5032812;28;20021;-85
2021/07/21 00:06:08;;;;;;;0.80;0.75;;;22.20;56.40;;;;;;5035944;28;20033;-85
2021/07/21 00:08:34;;;;;;;0.55;0.55;;;22.00;57.10;;;;;;5031954;28;20033;-85
2021/07/21 00:13:44;;;;;;;0.30;0.30;;;21.90;58.50;;;;;;5033957;28;20056;-85
2021/07/21 00:16:19;;;;;;;2.78;1.85;;;21.80;58.00;;;;;;5036251;28;20812;-85
2021/07/21 00:18:49;;;;;;;2.60;1.13;;;21.90;57.50;;;;;;5036944;28;20448;-84
2021/07/21 00:21:17;;;;;;;1.02;0.70;;;21.90;57.50;;;;;;5029421;28;20021;-84
2021/07/21 00:23:43;;;;;;;0.57;0.57;;;21.80;58.00;;;;;;5035086;28;20059;-85
2021/07/21 00:26:09;;;;;;;0.65;0.65;;;21.90;57.90;;;;;;5036586;28;20037;-85
2021/07/21 00:28:39;;;;;;;3.40;0.98;;;21.80;58.90;;;;;;5043364;28;20404;-85
2021/07/21 00:31:04;;;;;;;1.15;1.13;;;21.60;58.90;;;;;;5032024;28;20029;-85
2021/07/21 00:33:31;;;;;;;0.43;0.43;;;21.50;59.70;;;;;;5037272;28;20037;-85
2021/07/21 00:35:57;;;;;;;1.17;0.50;;;21.50;59.40;;;;;;5035436;28;20148;-85
2021/07/21 00:38:22;;;;;;;1.42;1.23;;;21.40;59.80;;;;;;5040690;28;20112;-85
2021/07/21 00:40:50;;;;;;;10.53;1.10;;;21.40;59.90;;;;;;5036345;28;20037;-85
2021/07/21 00:43:16;;;;;;;1.00;0.65;;;21.20;60.80;;;;;;5029233;28;20026;-85
2021/07/21 00:45:42;;;;;;;0.80;0.40;;;21.40;60.40;;;;;;5029290;28;20029;-85
2021/07/21 00:48:08;;;;;;;0.60;0.60;;;21.30;60.40;;;;;;5045395;28;20033;-85
2021/07/21 00:50:34;;;;;;;10.15;1.92;;;21.20;60.70;;;;;;5042256;28;20033;-84
2021/07/21 00:53:01;;;;;;;1.35;1.25;;;21.20;61.30;;;;;;5032697;28;20029;-84
2021/07/21 00:55:27;;;;;;;2.08;1.02;;;21.20;61.10;;;;;;5036211;28;20053;-84
2021/07/21 00:57:54;;;;;;;;;;;21.10;61.70;;;;;;5036034;28;20401;-84
2021/07/21 01:00:21;;;;;;;1.90;0.88;;;21.10;61.80;;;;;;5027986;28;20809;-84
2021/07/21 01:02:48;;;;;;;1.08;1.08;;;21.00;62.20;;;;;;5034166;28;20041;-84
2021/07/21 01:05:21;;;;;;;0.80;0.80;;;21.00;61.90;;;;;;5033659;28;20079;-83
2021/07/21 01:07:50;;;;;;;1.27;0.82;;;21.00;62.30;;;;;;5037371;28;20087;-84
2021/07/21 01:10:18;;;;;;;1.67;1.55;;;20.90;62.60;;;;;;5041029;28;20089;-84
2021/07/21 01:13:21;;;;;;;1.00;0.93;;;20.90;63.60;;;;;;5044288;28;20036;-84
2021/07/21 01:16:04;;;;;;;9.95;2.42;;;20.90;63.80;;;;;;5037810;28;20105;-84
2021/07/21 01:18:44;;;;;;;1.88;1.05;;;20.80;64.80;;;;;;5028819;28;20065;-84
2021/07/21 01:21:31;;;;;;;2.83;1.23;;;20.80;64.50;;;;;;5029044;28;20029;-84
2021/07/21 01:24:27;;;;;;;1.35;1.00;;;20.80;63.80;;;;;;5037660;28;20036;-84
2021/07/21 01:27:11;;;;;;;1.65;1.05;;;20.90;63.70;;;;;;5037939;28;20028;-84
2021/07/21 01:29:38;;;;;;;1.38;0.75;;;20.80;64.10;;;;;;5040043;28;20029;-84
2021/07/21 01:32:06;;;;;;;1.67;1.05;;;20.90;63.90;;;;;;5036343;28;20061;-84
2021/07/21 01:34:33;;;;;;;0.88;0.88;;;20.90;64.10;;;;;;5043991;28;20072;-84
2021/07/21 01:37:00;;;;;;;1.23;0.93;;;20.90;63.60;;;;;;5042377;28;20025;-84
2021/07/21 01:39:30;;;;;;;0.82;0.28;;;21.00;63.50;;;;;;5032523;28;20768;-84
2021/07/21 01:42:02;;;;;;;0.30;0.30;;;20.80;65.20;;;;;;5049576;28;20025;-83
2021/07/21 01:44:31;;;;;;;0.50;0.50;;;20.80;64.40;;;;;;5041659;28;20051;-83
2021/07/21 01:47:01;;;;;;;0.63;0.45;;;20.60;65.00;;;;;;5043568;28;20029;-83
2021/07/21 01:49:31;;;;;;;1.08;0.98;;;20.60;65.70;;;;;;5039823;28;20025;-84
2021/07/21 01:51:58;;;;;;;1.67;1.27;;;20.60;65.10;;;;;;5030621;28;20125;-84
2021/07/21 01:54:26;;;;;;;1.45;1.35;;;20.40;65.90;;;;;;5029032;28;20057;-84
2021/07/21 01:56:53;;;;;;;2.42;1.35;;;20.40;66.30;;;;;;5033328;28;20045;-84
2021/07/21 01:59:20;;;;;;;1.23;0.80;;;20.30;67.00;;;;;;5043178;28;20070;-84
2021/07/21 02:01:47;;;;;;;6.57;2.65;;;20.30;67.10;;;;;;5037651;28;20021;-84
2021/07/21 02:04:14;;;;;;;1.55;1.02;;;20.30;68.40;;;;;;5045123;28;20025;-84
2021/07/21 02:06:41;;;;;;;2.10;1.30;;;20.40;67.60;;;;;;5040680;28;20096;-84
2021/07/21 02:09:09;;;;;;;3.88;1.08;;;20.40;67.90;;;;;;5031547;28;20025;-84
2021/07/21 02:11:37;;;;;;;0.80;0.80;;;20.40;67.20;;;;;;5029369;28;20401;-84
2021/07/21 02:14:04;;;;;;;1.73;1.25;;;20.10;68.90;;;;;;5030127;28;20541;-84
2021/07/21 02:16:31;;;;;;;11.18;1.38;;;20.10;69.30;;;;;;5044064;28;20021;-84
2021/07/21 02:18:59;;;;;;;1.55;1.25;;;20.10;70.50;;;;;;5037024;28;20051;-84
2021/07/21 02:21:25;;;;;;;7.45;1.02;;;20.00;70.30;;;;;;5036626;28;20032;-83
2021/07/21 02:23:52;;;;;;;;;;;20.00;70.10;;;;;;5033575;28;20029;-84
2021/07/21 02:26:18;;;;;;;;;;;19.90;70.50;;;;;;5032951;28;20403;-84
2021/07/21 02:28:44;;;;;;;;;;;19.90;71.10;;;;;;5042744;28;19912;-84
2021/07/21 02:31:15;;;;;;;0.90;0.90;;;19.90;71.30;;;;;;5044479;28;19952;-84
2021/07/21 02:33:51;;;;;;;1.33;0.57;;;19.80;71.90;;;;;;5032023;28;20037;-85
2021/07/21 02:36:18;;;;;;;2.47;1.50;;;20.00;71.70;;;;;;5047580;28;20057;-84
2021/07/21 02:38:45;;;;;;;;;;;19.90;71.10;;;;;;5047816;28;20063;-84
2021/07/21 02:41:11;;;;;;;1.05;0.70;;;19.80;71.90;;;;;;5044377;28;20640;-85
2021/07/21 02:43:36;;;;;;;0.67;0.63;;;19.80;72.30;;;;;;5039732;28;20025;-85
2021/07/21 02:46:03;;;;;;;1.30;0.40;;;19.80;73.00;;;;;;5047626;28;20078;-85
2021/07/21 02:48:29;;;;;;;1.45;1.00;;;19.70;73.10;;;;;;5038159;28;20028;-84
2021/07/21 02:51:02;;;;;;;9.80;1.65;;;19.90;73.50;;;;;;5039826;28;20029;-85
2021/07/21 02:53:37;;;;;;;3.13;1.27;;;19.80;73.30;;;;;;5037113;28;20026;-85
2021/07/21 02:56:08;;;;;;;0.30;0.30;;;19.80;73.00;;;;;;5030723;28;21040;-85
2021/07/21 02:58:50;;;;;;;8.23;2.92;;;19.80;73.50;;;;;;5042103;28;20275;-85
2021/07/21 03:01:20;;;;;;;2.15;1.40;;;19.80;74.80;;;;;;5042308;28;20026;-85
2021/07/21 03:03:49;;;;;;;0.80;0.68;;;19.70;73.90;;;;;;5034216;28;20026;-84
2021/07/21 03:06:19;;;;;;;1.38;0.98;;;19.50;74.70;;;;;;5033770;28;20071;-84
2021/07/21 03:08:48;;;;;;;2.58;1.48;;;19.50;75.40;;;;;;5040194;28;20021;-85
2021/07/21 03:11:16;;;;;;;3.10;1.23;;;19.60;75.60;;;;;;5046166;28;20031;-85
2021/07/21 03:13:55;;;;;;;3.72;1.98;;;19.50;75.70;;;;;;5039478;28;20025;-85
2021/07/21 03:16:45;;;;;;;3.60;1.33;;;19.60;75.20;;;;;;5042821;28;20059;-84
2021/07/21 03:19:14;;;;;;;1.20;1.10;;;19.40;76.30;;;;;;5037271;28;20018;-84
2021/07/21 03:21:40;;;;;;;1.15;1.05;;;19.40;75.60;;;;;;5032592;28;20037;-84
2021/07/21 03:24:07;;;;;;;1.20;0.95;;;19.50;76.60;;;;;;5037157;28;20029;-84
2021/07/21 03:26:34;;;;;;;1.95;1.55;;;19.40;77.00;;;;;;5044523;28;20043;-85
2021/07/21 03:29:01;;;;;;;2.25;1.15;;;19.20;77.40;;;;;;5033478;28;20740;-85
2021/07/21 03:31:27;;;;;;;2.40;0.40;;;19.40;77.40;;;;;;5033218;28;20030;-85
2021/07/21 03:34:05;;;;;;;35.25;4.10;;;19.30;77.70;;;;;;5031019;28;20025;-85
2021/07/21 03:36:37;;;;;;;8.35;2.30;;;19.20;78.10;;;;;;5031390;28;20527;-85
2021/07/21 03:39:05;;;;;;;0.75;0.75;;;19.10;79.60;;;;;;5032143;28;20045;-85
2021/07/21 03:41:36;;;;;;;1.40;0.95;;;19.10;79.30;;;;;;5031182;28;20093;-85
2021/07/21 03:44:04;;;;;;;9.48;1.02;;;18.90;80.10;;;;;;5033037;28;20028;-85
2021/07/21 03:46:30;;;;;;;0.95;0.90;;;18.90;81.30;;;;;;5030673;28;20029;-84
2021/07/21 03:48:59;;;;;;;0.95;0.95;;;19.10;80.10;;;;;;5029647;28;20037;-85
2021/07/21 03:51:25;;;;;;;1.00;0.93;;;19.10;80.40;;;;;;5026256;28;20037;-84
2021/07/21 03:53:51;;;;;;;1.45;1.10;;;19.10;79.70;;;;;;5031102;28;20572;-85
2021/07/21 03:56:18;;;;;;;1.08;0.60;;;19.00;80.30;;;;;;5027102;28;20046;-84
2021/07/21 03:58:44;;;;;;;;;;;18.90;80.80;;;;;;5041671;28;20580;-84
2021/07/21 04:01:10;;;;;;;0.23;0.23;;;18.90;81.30;;;;;;5032865;28;19995;-84
2021/07/21 04:03:39;;;;;;;1.55;1.08;;;18.80;81.70;;;;;;5029813;28;20343;-84
2021/07/21 04:06:06;;;;;;;1.50;1.40;;;18.80;82.00;;;;;;5036980;28;20068;-85
2021/07/21 04:08:33;;;;;;;0.77;0.77;;;18.60;83.80;;;;;;5033824;28;20029;-83
2021/07/21 04:11:00;;;;;;;1.30;1.20;;;18.70;83.20;;;;;;5031897;28;20075;-84
2021/07/21 04:13:26;;;;;;;;;;;18.80;83.40;;;;;;5034631;28;20033;-83
2021/07/21 04:15:55;;;;;;;1.52;1.42;;;18.70;83.00;;;;;;5030659;28;19917;-83
2021/07/21 04:18:22;;;;;;;1.10;1.00;;;18.60;84.20;;;;;;5036551;28;20803;-84
2021/07/21 04:20:50;;;;;;;1.23;1.13;;;18.60;84.20;;;;;;5030253;28;20026;-84
2021/07/21 04:23:17;;;;;;;17.83;2.30;;;18.60;85.30;;;;;;5046237;28;20520;-89
2021/07/21 04:25:43;;;;;;;2.50;1.38;;;18.60;85.30;;;;;;5032520;28;20021;-85
2021/07/21 04:28:12;;;;;;;1.63;0.90;;;18.70;85.20;;;;;;5036231;28;20057;-82
2021/07/21 04:30:38;;;;;;;2.42;2.05;;;18.90;83.90;;;;;;5032484;28;20049;-82
2021/07/21 04:33:05;;;;;;;1.05;1.00;;;18.70;85.20;;;;;;5032900;28;20053;-82
2021/07/21 04:35:31;;;;;;;2.05;1.35;;;18.60;85.50;;;;;;5036118;28;20040;-81
2021/07/21 04:37:58;;;;;;;0.67;0.67;;;18.50;86.40;;;;;;5039955;28;20441;-82
2021/07/21 04:40:25;;;;;;;0.30;0.30;;;18.70;85.50;;;;;;5038266;28;20036;-82
2021/07/21 04:42:51;;;;;;;1.60;1.50;;;18.70;85.20;;;;;;5027054;28;20216;-82
2021/07/21 04:45:17;;;;;;;1.83;1.45;;;18.50;86.60;;;;;;5042730;28;20033;-82
2021/07/21 04:47:44;;;;;;;2.80;1.43;;;18.70;86.30;;;;;;5036527;28;20040;-82
2021/07/21 04:50:13;;;;;;;1.17;0.98;;;18.70;86.60;;;;;;5027519;28;20121;-83
2021/07/21 04:52:41;;;;;;;3.03;2.28;;;18.70;86.50;;;;;;5032412;28;20033;-83
2021/07/21 04:55:08;;;;;;;2.17;1.02;;;18.70;86.40;;;;;;5035238;28;20626;-86
2021/07/21 04:57:34;;;;;;;1.30;1.23;;;18.70;86.60;;;;;;5037870;28;20731;-86
2021/07/21 05:00:00;;;;;;;1.13;0.80;;;18.80;86.90;;;;;;5026440;28;20072;-85
2021/07/21 05:02:25;;;;;;;2.10;1.40;;;18.80;86.50;;;;;;5031131;28;20033;-86
2021/07/21 05:04:51;;;;;;;0.87;0.83;;;18.80;87.60;;;;;;5042595;28;20659;-84
2021/07/21 05:07:18;;;;;;;1.17;0.73;;;18.60;87.80;;;;;;5036847;28;20025;-85
2021/07/21 05:09:44;;;;;;;0.85;0.85;;;18.70;87.80;;;;;;5030818;28;20037;-85
2021/07/21 05:12:10;;;;;;;1.95;0.65;;;18.80;87.60;;;;;;5039556;28;20178;-84
2021/07/21 05:14:35;;;;;;;1.13;1.03;;;19.10;88.30;;;;;;5037231;28;20108;-83
2021/07/21 05:17:01;;;;;;;0.60;0.60;;;19.80;86.50;;;;;;5048081;28;20073;-84
2021/07/21 05:19:27;;;;;;;1.53;1.30;;;20.30;85.60;;;;;;5042026;28;20072;-83
2021/07/21 05:21:53;;;;;;;0.55;0.55;;;20.80;82.00;;;;;;5033193;28;20029;-83
2021/07/21 05:24:20;;;;;;;3.27;1.77;;;20.90;80.60;;;;;;5036967;28;20508;-84
2021/07/21 05:26:47;;;;;;;0.85;0.77;;;20.90;81.70;;;;;;5033859;28;20106;-83
2021/07/21 05:29:13;;;;;;;;;;;20.80;81.00;;;;;;5047828;28;20044;-84
2021/07/21 05:31:39;;;;;;;1.15;0.80;;;20.80;80.90;;;;;;5036679;28;19919;-83
2021/07/21 05:34:05;;;;;;;3.67;1.83;;;21.20;80.60;;;;;;5032629;28;20033;-86
2021/07/21 05:36:35;;;;;;;3.80;1.83;;;21.80;78.40;;;;;;5032153;28;20032;-86
2021/07/21 05:39:04;;;;;;;0.22;0.22;;;21.50;77.50;;;;;;5039281;28;20549;-86
2021/07/21 05:41:30;;;;;;;1.73;1.25;;;21.80;78.10;;;;;;5037966;28;20025;-87
2021/07/21 05:43:56;;;;;;;3.63;2.03;;;22.30;76.60;;;;;;5044356;28;20026;-86
2021/07/21 05:46:21;;;;;;;0.68;0.63;;;22.90;74.50;;;;;;5032613;28;20036;-85
2021/07/21 05:48:47;;;;;;;2.00;1.37;;;23.20;72.00;;;;;;5040153;28;20048;-86
2021/07/21 05:51:13;;;;;;;1.10;1.08;;;23.30;73.90;;;;;;5050111;28;20033;-87
2021/07/21 05:53:39;;;;;;;0.52;0.52;;;23.60;72.20;;;;;;5047007;28;20097;-87
2021/07/21 05:56:05;;;;;;;1.48;0.88;;;24.00;69.60;;;;;;5030890;28;20060;-88
2021/07/21 05:58:31;;;;;;;3.72;0.77;;;24.10;68.10;;;;;;5029699;28;20033;-87
2021/07/21 06:00:57;;;;;;;0.25;0.25;;;24.70;65.60;;;;;;5030801;28;20031;-88
2021/07/21 06:03:24;;;;;;;0.68;0.68;;;25.10;64.30;;;;;;5029713;28;20108;-87
2021/07/21 06:05:50;;;;;;;0.80;0.80;;;25.70;63.80;;;;;;5030871;28;20036;-87
2021/07/21 06:08:17;;;;;;;1.40;1.30;;;25.80;63.60;;;;;;5030077;28;20244;-87
2021/07/21 06:10:42;;;;;;;;;;;25.40;64.10;;;;;;5051348;28;20489;-86
2021/07/21 06:13:11;;;;;;;1.95;0.40;;;25.90;61.50;;;;;;5049937;28;19914;-88
2021/07/21 06:15:38;;;;;;;2.08;1.05;;;26.30;59.70;;;;;;5045499;28;20029;-87
2021/07/21 06:18:04;;;;;;;1.23;1.13;;;26.60;61.60;;;;;;5030910;28;20040;-88
2021/07/21 06:20:30;;;;;;;;;;;26.60;59.70;;;;;;5031267;28;20021;-87
2021/07/21 06:22:57;;;;;;;1.05;1.05;;;26.20;56.50;;;;;;5028405;28;19941;-87
2021/07/21 06:25:23;;;;;;;1.38;0.88;;;26.40;57.80;;;;;;5031156;28;20028;-87
2021/07/21 06:27:50;;;;;;;0.70;0.70;;;26.80;56.40;;;;;;5029078;28;20463;-88
2021/07/21 06:30:16;;;;;;;1.67;1.42;;;27.10;57.70;;;;;;5032583;28;20035;-87
2021/07/21 06:32:44;;;;;;;1.13;1.08;;;26.90;56.80;;;;;;5038410;28;20028;-86
2021/07/21 06:35:10;;;;;;;1.83;1.48;;;27.20;55.30;;;;;;5045199;28;20669;-87
2021/07/21 06:37:37;;;;;;;1.67;0.68;;;27.20;56.10;;;;;;5043887;28;20021;-87
2021/07/21 06:40:07;;;;;;;1.30;1.20;;;27.40;55.40;;;;;;5047836;28;20575;-88
2021/07/21 06:42:33;;;;;;;0.40;0.40;;;28.00;56.70;;;;;;5045531;28;20017;-88
2021/07/21 06:44:59;;;;;;;0.30;0.28;;;28.40;52.60;;;;;;5037249;28;20037;-87
2021/07/21 06:47:25;;;;;;;1.08;0.95;;;29.80;49.00;;;;;;5038502;28;20029;-86
2021/07/21 06:49:51;;;;;;;1.17;1.05;;;30.10;47.20;;;;;;5041279;28;20033;-86
2021/07/21 06:52:21;;;;;;;2.60;1.00;;;30.90;44.40;;;;;;5031635;28;20099;-86
2021/07/21 06:54:47;;;;;;;2.92;1.58;;;31.50;43.30;;;;;;5030170;28;20030;-86
2021/07/21 06:57:12;;;;;;;;;;;31.00;45.10;;;;;;5030559;28;20032;-86
2021/07/21 06:59:39;;;;;;;2.05;0.73;;;30.90;43.10;;;;;;5037845;28;19991;-86
2021/07/21 07:02:06;;;;;;;0.63;0.63;;;30.20;40.60;;;;;;5044088;28;20028;-86
2021/07/21 07:04:32;;;;;;;1.00;0.93;;;30.90;44.70;;;;;;5048125;28;20025;-86
2021/07/21 07:06:57;;;;;;;;;;;31.00;43.60;;;;;;5049998;28;20074;-87
2021/07/21 07:09:23;;;;;;;0.50;0.50;;;31.60;41.80;;;;;;5050016;28;19909;-87
2021/07/21 07:11:50;;;;;;;;;;;31.60;41.20;;;;;;5048919;28;20463;-87
2021/07/21 07:14:16;;;;;;;2.17;0.57;;;31.30;36.30;;;;;;5049436;28;19913;-87
2021/07/21 07:16:42;;;;;;;0.73;0.73;;;30.80;37.80;;;;;;5048587;28;20032;-87
2021/07/21 07:19:08;;;;;;;4.82;2.05;;;31.00;38.20;;;;;;5049932;28;20088;-87
2021/07/21 07:21:34;;;;;;;2.97;0.95;;;31.50;34.40;;;;;;5048348;28;20025;-87
2021/07/21 07:24:00;;;;;;;0.95;0.63;;;31.40;34.50;;;;;;5049712;28;20049;-87
2021/07/21 07:26:26;;;;;;;0.60;0.60;;;31.70;35.00;;;;;;5047162;28;20036;-87
2021/07/21 07:28:56;;;;;;;1.02;1.00;;;31.40;32.90;;;;;;5049801;28;20013;-87
2021/07/21 07:31:23;;;;;;;4.18;1.33;;;33.50;31.40;;;;;;5049455;28;20033;-87
2021/07/21 07:33:49;;;;;;;1.98;0.82;;;32.80;32.10;;;;;;5049202;28;20040;-87
2021/07/21 07:36:15;;;;;;;1.08;0.80;;;33.00;33.00;;;;;;5049541;28;20052;-87
2021/07/21 07:38:41;;;;;;;0.55;0.55;;;32.80;28.50;;;;;;5049255;28;20033;-87
2021/07/21 07:41:07;;;;;;;1.48;0.73;;;33.30;30.20;;;;;;5049612;28;20051;-87
2021/07/21 07:43:36;;;;;;;1.15;0.73;;;33.30;32.30;;;;;;5048967;28;20032;-87
2021/07/21 07:46:03;;;;;;;1.65;1.30;;;32.70;29.80;;;;;;5048377;28;20029;-87
2021/07/21 07:48:29;;;;;;;0.90;0.75;;;32.70;32.10;;;;;;5049242;28;20035;-86
2021/07/21 07:50:55;;;;;;;0.45;0.40;;;33.50;28.60;;;;;;5049432;28;20029;-87
2021/07/21 07:53:20;;;;;;;0.40;0.40;;;34.30;28.80;;;;;;5049376;28;20767;-87
2021/07/21 07:55:46;;;;;;;2.05;1.45;;;32.90;26.60;;;;;;5048876;28;20118;-87
2021/07/21 07:58:12;;;;;;;0.82;0.55;;;33.60;28.00;;;;;;5049293;28;20096;-87
2021/07/21 08:00:38;;;;;;;0.35;0.35;;;35.20;24.40;;;;;;5048870;28;20021;-87
2021/07/21 08:03:04;;;;;;;0.73;0.57;;;34.20;24.10;;;;;;5049330;28;20111;-87
2021/07/21 08:05:30;;;;;;;1.85;0.95;;;35.30;22.70;;;;;;5049140;28;20099;-87
2021/07/21 08:07:56;;;;;;;0.30;0.30;;;35.70;24.90;;;;;;5049144;28;20035;-87
2021/07/21 08:10:23;;;;;;;2.30;0.82;;;34.90;25.10;;;;;;5049190;28;20412;-87
2021/07/21 08:12:49;;;;;;;0.85;0.85;;;35.70;20.20;;;;;;5048858;28;20076;-87
2021/07/21 08:15:15;;;;;;;2.30;0.43;;;35.70;17.00;;;;;;5047788;28;20025;-87
2021/07/21 08:17:42;;;;;;;0.32;0.32;;;36.90;17.10;;;;;;5048754;28;20032;-87
2021/07/21 08:20:08;;;;;;;0.10;0.10;;;36.80;19.90;;;;;;5047780;28;20035;-87
2021/07/21 08:22:41;;;;;;;1.23;0.82;;;37.20;18.50;;;;;;5048759;28;20024;-87
2021/07/21 08:25:13;;;;;;;0.90;0.85;;;37.60;13.60;;;;;;5048678;28;20028;-87
2021/07/21 08:27:40;;;;;;;4.10;0.50;;;38.70;11.00;;;;;;5048650;28;20431;-87
2021/07/21 08:30:12;;;;;;;0.17;0.17;;;39.30;10.30;;;;;;5048639;28;20397;-87
2021/07/21 08:32:41;;;;;;;1.20;0.82;;;37.00;8.80;;;;;;5031519;28;20032;-85
2021/07/21 08:35:07;;;;;;;2.08;0.57;;;39.30;10.10;;;;;;5028842;28;20026;-85
2021/07/21 08:37:33;;;;;;;0.25;0.25;;;39.80;9.10;;;;;;5039908;28;20571;-85
2021/07/21 08:40:02;;;;;;;1.08;0.60;;;39.00;12.60;;;;;;5051346;28;20048;-85
2021/07/21 08:42:28;;;;;;;0.40;0.40;;;39.20;11.10;;;;;;5052454;28;20020;-85
2021/07/21 08:44:56;;;;;;;0.90;0.63;;;39.50;8.30;;;;;;5052313;28;20039;-85
2021/07/21 08:47:22;;;;;;;2.75;1.25;;;41.30;3.80;;;;;;5052533;28;20028;-85
2021/07/21 08:49:48;;;;;;;2.17;1.45;;;40.40;5.00;;;;;;5052201;28;20029;-85
2021/07/21 08:52:16;;;;;;;1.10;0.95;;;40.00;3.10;;;;;;5052327;28;20378;-85
2021/07/21 08:54:49;;;;;;;1.50;0.82;;;41.50;2.80;;;;;;5052382;28;20504;-85
2021/07/21 08:57:16;;;;;;;1.75;0.73;;;40.30;1.00;;;;;;5050869;28;20068;-85
2021/07/21 08:59:45;;;;;;;0.30;0.30;;;39.00;2.90;;;;;;5051855;28;20021;-85
2021/07/21 09:02:14;;;;;;;1.20;0.82;;;40.20;1.00;;;;;;5051841;28;20560;-85
2021/07/21 09:04:40;;;;;;;3.45;1.27;;;41.00;1.00;;;;;;5050208;28;20514;-85
2021/07/21 09:07:07;;;;;;;1.02;1.00;;;40.10;1.00;;;;;;5044085;28;20037;-85
2021/07/21 09:09:36;;;;;;;1.10;1.02;;;41.70;1.70;;;;;;5046339;28;20112;-85
2021/07/21 09:12:03;;;;;;;1.27;0.52;;;41.50;1.00;;;;;;5045404;28;20033;-85
2021/07/21 09:14:29;;;;;;;2.30;1.13;;;42.50;1.00;;;;;;5031451;28;20021;-85
2021/07/21 09:17:26;;;;;;;1.83;1.08;;;41.40;1.00;;;;;;5033429;28;20854;-85
2021/07/21 09:19:52;;;;;;;1.55;0.73;;;38.80;1.90;;;;;;5042418;28;20033;-83
2021/07/21 09:22:23;;;;;;;0.20;0.20;;;38.40;1.00;;;;;;5035066;28;20025;-85
2021/07/21 09:25:12;;;;;;;1.23;0.68;;;39.70;1.00;;;;;;5044463;28;20026;-85
2021/07/21 09:27:43;;;;;;;0.98;0.70;;;41.50;1.00;;;;;;5031088;28;20025;-85
2021/07/21 09:30:10;;;;;;;0.22;0.22;;;42.00;1.00;;;;;;5040473;28;20411;-85
2021/07/21 09:33:05;;;;;;;0.68;0.60;;;41.30;1.00;;;;;;5036895;28;20116;-85
2021/07/21 09:35:36;;;;;;;0.20;0.20;;;39.50;1.00;;;;;;5038030;28;20468;-85
2021/07/21 09:38:10;;;;;;;0.68;0.68;;;40.10;1.50;;;;;;5036421;28;20033;-85
2021/07/21 09:40:40;;;;;;;0.65;0.63;;;41.40;1.00;;;;;;5036667;28;20045;-85
2021/07/21 09:43:23;;;;;;;1.05;0.50;;;43.70;1.00;;;;;;5034855;28;20024;-85
2021/07/21 09:45:50;;;;;;;0.22;0.22;;;43.80;1.00;;;;;;5033824;28;20571;-85
2021/07/21 09:48:18;;;;;;;1.10;0.70;;;44.20;1.00;;;;;;5034224;28;20034;-85
2021/07/21 09:50:48;;;;;;;0.88;0.50;;;42.50;1.00;;;;;;5037182;28;20013;-85
2021/07/21 09:53:15;;;;;;;0.28;0.28;;;42.30;1.00;;;;;;5042817;28;20067;-85
2021/07/21 09:55:45;;;;;;;1.73;1.10;;;42.70;1.00;;;;;;5047245;28;20097;-84
2021/07/21 09:58:23;;;;;;;1.25;0.52;;;43.70;1.00;;;;;;5046332;28;20041;-84
2021/07/21 10:00:49;;;;;;;1.20;0.77;;;43.70;1.00;;;;;;5046282;28;20021;-85
2021/07/21 10:03:26;;;;;;;0.93;0.80;;;43.00;1.00;;;;;;5047133;28;20559;-85
2021/07/21 10:06:09;;;;;;;1.85;0.28;;;42.40;1.00;;;;;;5048852;28;20047;-84
2021/07/21 10:08:47;;;;;;;1.45;0.47;;;43.40;1.00;;;;;;5043380;28;20497;-85
2021/07/21 10:11:30;;;;;;;0.38;0.38;;;42.70;1.00;;;;;;5040823;28;20497;-85
2021/07/21 10:14:10;;;;;;;1.50;0.73;;;42.60;1.00;;;;;;5037041;28;20104;-85
2021/07/21 10:16:47;;;;;;;0.52;0.47;;;41.80;1.00;;;;;;5045656;28;20028;-84
2021/07/21 10:19:19;;;;;;;0.28;0.28;;;44.20;1.00;;;;;;5031334;28;20045;-87
2021/07/21 10:21:50;;;;;;;0.60;0.60;;;44.10;1.00;;;;;;5035976;28;20025;-86
2021/07/21 10:24:16;;;;;;;0.75;0.75;;;44.60;1.00;;;;;;5037542;28;20068;-85
2021/07/21 10:26:42;;;;;;;;;;;41.50;1.00;;;;;;5035111;28;20063;-85
2021/07/21 10:29:10;;;;;;;2.22;0.60;;;41.80;1.00;;;;;;5048419;28;19908;-86
2021/07/21 10:31:38;;;;;;;1.10;0.80;;;41.70;1.00;;;;;;5040261;28;20048;-86
2021/07/21 10:34:05;;;;;;;0.38;0.35;;;41.70;1.00;;;;;;5030775;28;20068;-87
2021/07/21 10:36:32;;;;;;;0.65;0.52;;;41.80;1.00;;;;;;5030565;28;20029;-87
2021/07/21 10:39:00;;;;;;;0.45;0.45;;;42.50;1.00;;;;;;5030783;28;20029;-88
2021/07/21 10:41:47;;;;;;;1.08;0.65;;;43.70;1.00;;;;;;5030881;28;20818;-87
2021/07/21 10:44:18;;;;;;;15.23;2.60;;;43.80;1.00;;;;;;5031990;28;20030;-87
2021/07/21 10:46:46;;;;;;;0.43;0.43;;;43.70;1.00;;;;;;5045589;28;20125;-87
2021/07/21 11:00:14;;;;;;;1.92;1.00;;;43.70;1.00;;;;;;5030473;28;20063;-87
2021/07/21 11:02:42;;;;;;;1.75;1.00;;;43.30;1.00;;;;;;5029386;28;20589;-87
2021/07/21 11:05:28;;;;;;;1.10;0.88;;;42.50;1.00;;;;;;5030646;28;20504;-87
2021/07/21 11:07:55;;;;;;;6.53;0.50;;;43.00;1.00;;;;;;5030440;28;20033;-88
2021/07/21 11:10:34;;;;;;;0.85;0.60;;;43.70;1.00;;;;;;5029056;28;20021;-87
2021/07/21 11:13:00;;;;;;;2.92;1.00;;;41.20;1.00;;;;;;5030659;28;20379;-87
2021/07/21 11:15:44;;;;;;;0.40;0.35;;;40.10;1.00;;;;;;5030320;28;20654;-87
2021/07/21 11:18:22;;;;;;;1.00;0.52;;;41.30;1.00;;;;;;5029877;28;20053;-87
2021/07/21 11:21:08;;;;;;;0.13;0.13;;;41.50;1.00;;;;;;5030325;28;20031;-87
2021/07/21 11:23:53;;;;;;;0.95;0.63;;;41.80;1.00;;;;;;5030085;28;20497;-87
2021/07/21 11:26:34;;;;;;;2.78;0.77;;;43.60;1.00;;;;;;5030108;28;20033;-87
2021/07/21 11:29:22;;;;;;;1.60;0.43;;;42.70;1.00;;;;;;5029804;28;20033;-87
2021/07/21 11:31:53;;;;;;;1.25;1.15;;;41.10;1.00;;;;;;5039905;28;20033;-87
2021/07/21 11:34:33;;;;;;;5.68;1.27;;;40.00;1.00;;;;;;5048310;28;20033;-87
2021/07/21 11:37:20;;;;;;;0.35;0.35;;;39.90;1.00;;;;;;5050369;28;20021;-88
2021/07/21 11:39:59;;;;;;;0.85;0.65;;;35.80;1.00;;;;;;5050111;28;20040;-87
2021/07/21 11:42:35;;;;;;;2.13;0.63;;;33.40;3.10;;;;;;5050392;28;20400;-87
2021/07/21 11:45:07;;;;;;;0.40;0.40;;;32.30;6.90;;;;;;5050165;28;20025;-88
2021/07/21 11:47:34;;;;;;;2.65;0.73;;;32.20;6.30;;;;;;5049436;28;20017;-88
2021/07/21 11:50:10;;;;;;;0.93;0.65;;;32.10;9.10;;;;;;5049801;28;20028;-88
2021/07/21 11:52:36;;;;;;;0.77;0.73;;;32.10;8.90;;;;;;5049437;28;20060;-87
2021/07/21 11:55:02;;;;;;;0.80;0.70;;;31.90;10.30;;;;;;5049024;28;20056;-87
2021/07/21 11:57:28;;;;;;;0.40;0.40;;;31.70;11.40;;;;;;5049242;28;20017;-87
2021/07/21 11:59:56;;;;;;;0.00;0.00;;;31.70;10.80;;;;;;5049185;28;20401;-87
2021/07/21 12:02:26;;;;;;;3.47;0.55;;;31.90;11.00;;;;;;5049314;28;20657;-88
2021/07/21 12:04:55;;;;;;;1.55;0.55;;;31.80;11.30;;;;;;5047860;28;20080;-87
2021/07/21 12:07:23;;;;;;;2.45;0.43;;;31.60;13.10;;;;;;5049337;28;20052;-87
2021/07/21 12:09:51;;;;;;;1.08;0.85;;;31.30;14.90;;;;;;5049336;28;20029;-88
2021/07/21 12:12:23;;;;;;;0.22;0.22;;;31.20;14.30;;;;;;5048630;28;20068;-87
2021/07/21 12:14:54;;;;;;;0.80;0.70;;;31.40;15.00;;;;;;5049064;28;20021;-88
2021/07/21 12:17:22;;;;;;;0.50;0.30;;;31.40;16.10;;;;;;5049398;28;20018;-88
2021/07/21 12:19:58;;;;;;;0.38;0.38;;;31.30;14.20;;;;;;5047753;28;20052;-88
2021/07/21 12:22:25;;;;;;;1.35;0.40;;;31.50;15.20;;;;;;5048104;28;20532;-88
2021/07/21 12:24:53;;;;;;;0.30;0.30;;;31.20;15.90;;;;;;5049299;28;20056;-88
2021/07/21 12:27:29;;;;;;;0.85;0.85;;;31.40;15.20;;;;;;5049925;28;20550;-87
2021/07/21 12:30:00;;;;;;;1.15;0.30;;;31.00;15.70;;;;;;5048501;28;20155;-87
2021/07/21 12:32:26;;;;;;;0.08;0.08;;;31.50;16.90;;;;;;5034080;28;20030;-88
2021/07/21 12:34:54;;;;;;;0.77;0.32;;;31.10;15.50;;;;;;5028795;28;20120;-87
2021/07/21 12:37:23;;;;;;;0.65;0.32;;;31.10;16.60;;;;;;5029540;28;20032;-87
2021/07/21 12:39:50;;;;;;;1.67;0.47;;;31.30;16.60;;;;;;5029138;28;20041;-87
2021/07/21 12:42:17;;;;;;;1.05;0.85;;;31.10;16.00;;;;;;5029390;28;20021;-87
2021/07/21 12:44:44;;;;;;;0.30;0.30;;;30.70;16.70;;;;;;5029298;28;20445;-87
2021/07/21 12:47:12;;;;;;;5.25;0.38;;;31.00;17.80;;;;;;5029059;28;20100;-87
2021/07/21 12:49:39;;;;;;;0.43;0.43;;;30.80;17.40;;;;;;5028119;28;20135;-86
2021/07/21 12:52:14;;;;;;;0.25;0.25;;;30.60;17.80;;;;;;5028767;28;20139;-87
2021/07/21 12:54:45;;;;;;;2.83;1.25;;;30.60;18.60;;;;;;5029008;28;20029;-87
2021/07/21 12:57:11;;;;;;;1.45;1.00;;;30.50;18.40;;;;;;5028575;28;20468;-87
2021/07/21 12:59:37;;;;;;;;;;;30.50;18.20;;;;;;5029702;28;20025;-88
2021/07/21 13:02:15;;;;;;;0.28;0.28;;;30.30;17.40;;;;;;5027879;28;20060;-88
2021/07/21 13:04:43;;;;;;;0.17;0.17;;;30.50;18.50;;;;;;5029621;28;20033;-87
2021/07/21 13:07:09;;;;;;;0.70;0.47;;;30.60;17.90;;;;;;5032539;28;20086;-87
2021/07/21 13:09:38;;;;;;;0.63;0.63;;;30.30;18.40;;;;;;5040061;28;20048;-87
2021/07/21 13:12:17;;;;;;;0.50;0.50;;;30.60;18.90;;;;;;5040338;28;20109;-87
2021/07/21 13:14:53;;;;;;;0.75;0.55;;;30.20;18.90;;;;;;5035663;28;20049;-87
2021/07/21 13:17:23;;;;;;;0.32;0.32;;;30.60;19.30;;;;;;5036391;28;20024;-87